.
WxDataArchive / Data Records for 2011-08-19
2011-08-18 August 2011 2011-08-20

Data Records for Friday, 19 August 2011

Time	Temp	Chill	HIndex	Humid	Dewpt	 Wind 	HiWind	WindDir	Rain 	Barom 
-----	----	-----	------	-----	-----	------	------	-------	-----	----- 
00:00	70.3	70.3	70.3	78	63.1	0	0	---	0.00	29.888 
00:05	70.1	70.1	70.1	78	62.9	0	0	---	0.00	29.888 
00:10	69.9	69.9	69.9	78	62.7	0	0	---	0.00	29.888 
00:15	69.8	69.8	69.8	78	62.6	0	0	---	0.00	29.900 
00:20	69.6	69.6	69.6	79	62.8	0	0	---	0.00	29.900 
00:25	69.6	69.6	69.6	79	62.8	0	0	---	0.00	29.900 
00:30	69.4	69.4	69.4	79	62.6	0	0	---	0.00	29.899 
00:35	69.4	69.4	69.4	80	63.0	0	0	---	0.00	29.899 
00:40	69.1	69.1	69.1	80	62.7	0	0	---	0.00	29.899 
00:45	68.9	68.9	68.9	81	62.8	0	0	---	0.00	29.898 
00:50	68.8	68.8	68.8	81	62.7	0	0	---	0.00	29.898 
00:55	68.6	68.6	68.6	81	62.5	0	0	---	0.00	29.898 
01:00	68.6	68.6	68.6	82	62.9	0	0	---	0.00	29.903 
01:05	68.6	68.6	68.6	82	62.9	0	0	---	0.00	29.903 
01:10	68.6	68.6	68.6	82	62.9	0	0	---	0.00	29.903 
01:15	68.6	68.6	68.6	81	62.5	0	0	---	0.00	29.901 
01:20	68.4	68.4	68.4	81	62.3	0	0	---	0.00	29.901 
01:25	68.3	68.3	68.3	82	62.6	0	0	---	0.00	29.901 
01:30	68.1	68.1	68.1	82	62.4	0	0	---	0.00	29.897 
01:35	67.9	67.9	67.9	82	62.2	0	0	---	0.00	29.897 
01:40	67.8	67.8	67.8	83	62.4	0	0	---	0.00	29.897 
01:45	67.6	67.6	67.6	83	62.2	0	0	---	0.00	29.892 
01:50	67.4	67.4	67.4	83	62.0	0	0	---	0.00	29.892 
01:55	67.3	67.3	67.3	84	62.3	0	0	---	0.00	29.892 
02:00	67.1	67.1	67.1	84	62.1	0	0	---	0.00	29.886 
02:05	66.9	66.9	66.9	84	61.9	0	0	---	0.00	29.886 
02:10	66.8	66.8	66.8	84	61.8	0	0	---	0.00	29.886 
02:15	66.8	66.8	66.8	84	61.8	0	0	---	0.00	29.883 
02:20	66.6	66.6	66.6	85	61.9	0	0	---	0.00	29.883 
02:25	66.4	66.4	66.4	85	61.7	0	0	---	0.00	29.883 
02:30	66.4	66.4	66.4	86	62.1	0	0	---	0.00	29.881 
02:35	66.4	66.4	66.4	86	62.1	0	0	---	0.00	29.881 
02:40	66.3	66.3	66.3	86	62.0	0	0	---	0.00	29.881 
02:45	66.3	66.3	66.3	86	62.0	0	0	---	0.00	29.878 
02:50	66.1	66.1	66.1	86	61.8	0	0	---	0.00	29.878 
02:55	66.0	66.0	66.0	86	61.7	0	0	---	0.00	29.878 
03:00	65.8	65.8	65.8	86	61.5	0	0	---	0.00	29.877 
03:05	65.8	65.8	65.8	86	61.5	0	0	---	0.00	29.877 
03:10	65.8	65.8	65.8	86	61.5	0	0	---	0.00	29.877 
03:15	65.6	65.6	65.6	86	61.3	0	0	---	0.00	29.880 
03:20	65.5	65.5	65.5	86	61.2	0	0	---	0.00	29.880 
03:25	65.3	65.3	65.3	86	61.0	0	0	---	0.00	29.880 
03:30	65.3	65.3	65.3	86	61.0	0	0	---	0.00	29.872 
03:35	65.2	65.2	65.2	86	60.9	0	0	---	0.00	29.872 
03:40	65.2	65.2	65.2	86	60.9	0	0	---	0.00	29.872 
03:45	65.0	65.0	65.0	86	60.7	0	0	---	0.00	29.873 
03:50	64.8	64.8	64.8	86	60.5	0	0	---	0.00	29.873 
03:55	64.8	64.8	64.8	86	60.5	0	0	---	0.00	29.873 
04:00	64.7	64.7	64.7	86	60.4	0	0	---	0.00	29.868 
04:05	64.5	64.5	64.5	86	60.2	0	0	---	0.00	29.868 
04:10	64.5	64.5	64.5	86	60.2	0	0	---	0.00	29.868 
04:15	64.3	64.3	64.3	87	60.3	0	0	---	0.00	29.865 
04:20	64.2	64.2	64.2	87	60.2	0	0	---	0.00	29.865 
04:25	64.0	64.0	64.0	87	60.0	0	0	---	0.00	29.865 
04:30	63.9	63.9	63.9	87	59.9	0	0	---	0.00	29.869 
04:35	63.9	63.9	63.9	88	60.3	0	0	---	0.00	29.869 
04:40	63.7	63.7	63.7	88	60.1	0	0	---	0.00	29.869 
04:45	63.5	63.5	63.5	88	59.9	0	0	---	0.00	29.865 
04:50	63.5	63.5	63.5	88	59.9	0	0	---	0.00	29.865 
04:55	63.4	63.4	63.4	88	59.8	0	0	---	0.00	29.865 
05:00	63.2	63.2	63.2	88	59.6	0	0	---	0.00	29.863 
05:05	63.2	63.2	63.2	88	59.6	0	0	---	0.00	29.863 
05:10	63.1	63.1	63.1	89	59.8	0	0	---	0.00	29.863 
05:15	63.1	63.1	63.1	89	59.8	0	0	---	0.00	29.868 
05:20	63.1	63.1	63.1	89	59.8	0	0	---	0.00	29.868 
05:25	62.9	62.9	62.9	89	59.6	0	0	---	0.00	29.868 
05:30	62.9	62.9	62.9	89	59.6	0	0	---	0.00	29.870 
05:35	62.7	62.7	62.7	89	59.4	0	0	---	0.00	29.870 
05:40	62.6	62.6	62.6	89	59.3	0	0	---	0.00	29.870 
05:45	62.6	62.6	62.6	89	59.3	0	0	---	0.00	29.870 
05:50	62.6	62.6	62.6	89	59.3	0	0	---	0.00	29.870 
05:55	62.4	62.4	62.4	89	59.1	0	0	---	0.00	29.870 
06:00	62.4	62.4	62.4	89	59.1	0	0	---	0.00	29.870 
06:05	62.4	62.4	62.4	90	59.4	0	0	---	0.00	29.870 
06:10	62.3	62.3	62.3	90	59.3	0	0	---	0.00	29.870 
06:15	62.3	62.3	62.3	90	59.3	0	0	---	0.00	29.874 
06:20	62.1	62.1	62.1	90	59.1	0	0	---	0.00	29.874 
06:25	62.1	62.1	62.1	90	59.1	0	0	---	0.00	29.874 
06:30	62.0	62.0	62.0	90	59.0	0	0	---	0.00	29.878 
06:35	62.0	62.0	62.0	90	59.0	0	0	---	0.00	29.878 
06:40	61.8	61.8	61.8	90	58.8	0	0	---	0.00	29.878 
06:45	61.8	61.8	61.8	90	58.8	0	0	---	0.00	29.892 
06:50	61.6	61.6	61.6	90	58.6	0	0	---	0.00	29.892 
06:55	61.6	61.6	61.6	91	58.9	0	0	---	0.00	29.892 
07:00	61.5	61.5	61.5	91	58.8	0	0	---	0.00	29.893 
07:05	61.5	61.5	61.5	91	58.8	0	0	---	0.00	29.893 
07:10	61.3	61.3	61.3	91	58.6	0	0	---	0.00	29.893 
07:15	61.3	61.3	61.3	91	58.6	0	0	---	0.00	29.899 
07:20	61.3	61.3	61.3	91	58.6	0	0	---	0.00	29.899 
07:25	61.3	61.3	61.3	91	58.6	0	0	---	0.00	29.899 
07:30	61.3	61.3	61.3	92	59.0	0	0	---	0.00	29.902 
07:35	61.3	61.3	61.3	92	59.0	0	0	---	0.00	29.902 
07:40	61.5	61.5	61.5	92	59.2	0	0	---	0.00	29.902 
07:45	61.8	61.8	61.8	92	59.4	0	0	---	0.00	29.902 
07:50	62.0	62.0	62.0	92	59.6	0	0	---	0.00	29.902 
07:55	62.4	62.4	62.4	92	60.0	0	0	---	0.00	29.902 
08:00	62.7	62.7	62.7	92	60.3	0	0	---	0.00	29.905 
08:05	63.2	63.2	63.2	92	60.8	0	0	---	0.00	29.905 
08:10	63.7	63.7	63.7	92	61.3	0	0	---	0.00	29.905 
08:15	64.2	64.2	64.2	90	61.2	0	0	---	0.00	29.905 
08:20	64.8	64.8	64.8	87	60.8	0	0	---	0.00	29.905 
08:25	65.5	65.5	65.5	85	60.9	0	0	---	0.00	29.905 
08:30	66.0	66.0	66.0	83	60.7	0	0	---	0.00	29.905 
08:35	66.4	66.4	66.4	81	60.4	0	0	---	0.00	29.905 
08:40	66.8	66.8	66.8	78	59.7	0	0	---	0.00	29.905 
08:45	67.3	67.3	67.3	76	59.5	0	0	---	0.00	29.905 
08:50	67.8	67.8	67.8	76	59.9	0	0	---	0.00	29.905 
08:55	68.4	68.4	68.4	73	59.4	0	0	---	0.00	29.905 
09:00	68.9	68.9	68.9	72	59.5	0	0	---	0.00	29.911 
09:05	69.1	69.1	69.1	71	59.3	0	0	---	0.00	29.911 
09:10	69.1	69.1	69.1	71	59.3	0	0	---	0.00	29.911 
09:15	69.1	69.1	69.1	70	58.9	0	0	---	0.00	29.917 
09:20	69.1	69.1	69.1	69	58.5	0	0	---	0.00	29.917 
09:25	69.3	69.3	69.3	69	58.7	0	0	---	0.00	29.917 
09:30	70.1	70.1	70.1	66	58.2	0	0	---	0.00	29.915 
09:35	70.8	70.8	70.8	65	58.4	0	0	---	0.00	29.915 
09:40	71.6	71.6	71.6	63	58.3	0	0	---	0.00	29.915 
09:45	72.5	72.5	72.5	60	57.8	0	0	---	0.00	29.915 
09:50	73.7	73.7	73.7	58	58.0	0	0	---	0.00	29.915 
09:55	74.7	74.7	74.7	57	58.4	0	0	---	0.00	29.915 
10:00	75.6	75.6	77.9	54	57.8	0	0	---	0.00	29.909 
10:05	75.4	75.4	77.8	54	57.6	0	0	---	0.00	29.909 
10:10	74.9	74.9	74.9	56	58.1	0	3	270	0.00	29.909 
10:15	74.9	74.9	74.9	56	58.1	0	2	270	0.00	29.910 
10:20	75.1	75.1	77.6	56	58.3	0	3	270	0.00	29.910 
10:25	75.4	75.4	77.7	55	58.1	1	3	270	0.00	29.910 
10:30	76.0	76.0	78.1	56	59.2	1	4	248	0.00	29.908 
10:35	76.3	76.3	78.3	54	58.4	1	3	112	0.00	29.908 
10:40	77.0	77.0	78.7	55	59.6	0	2	112	0.00	29.908 
10:45	77.0	77.0	78.7	52	58.0	0	1	112	0.00	29.913 
10:50	77.2	77.2	78.8	52	58.2	0	1	112	0.00	29.913 
10:55	77.4	77.4	78.8	50	57.3	0	1	112	0.00	29.913 
11:00	77.6	77.6	79.0	52	58.6	0	1	112	0.00	29.915 
11:05	77.7	77.7	79.1	51	58.1	0	3	112	0.00	29.915 
11:10	78.5	78.5	79.5	49	57.7	1	3	112	0.00	29.915 
11:15	79.0	79.0	79.9	49	58.2	0	2	112	0.00	29.916 
11:20	79.6	79.6	80.3	48	58.2	1	3	112	0.00	29.916 
11:25	79.8	79.8	80.2	45	56.5	1	3	112	0.00	29.916 
11:30	79.9	79.9	80.2	44	56.0	0	2	112	0.00	29.914 
11:35	80.1	80.1	80.6	47	58.0	0	2	112	0.00	29.914 
11:40	80.9	80.9	81.2	46	58.2	1	3	112	0.00	29.914 
11:45	80.5	80.5	80.7	45	57.2	1	3	112	0.00	29.914 
11:50	80.1	80.1	80.5	46	57.4	0	2	112	0.00	29.914 
11:55	80.1	80.1	80.7	48	58.6	0	1	112	0.00	29.914 
12:00	80.7	80.7	81.3	49	59.7	0	2	112	0.00	29.908 
12:05	81.1	81.1	81.4	46	58.3	0	1	112	0.00	29.908 
12:10	81.2	81.2	81.6	47	59.0	0	2	112	0.00	29.908 
12:15	82.0	82.0	82.1	45	58.5	0	3	112	0.00	29.903 
12:20	82.2	82.2	82.3	45	58.7	0	2	112	0.00	29.903 
12:25	81.8	81.8	81.9	45	58.4	0	2	112	0.00	29.903 
12:30	81.8	81.8	81.9	45	58.4	0	2	112	0.00	29.902 
12:35	82.0	82.0	82.3	47	59.8	0	2	112	0.00	29.902 
12:40	82.8	82.8	83.0	46	59.9	0	2	112	0.00	29.902 
12:45	83.0	83.0	83.1	45	59.4	1	4	68	0.00	29.901 
12:50	83.6	83.6	84.1	47	61.2	1	3	112	0.00	29.901 
12:55	84.1	84.1	84.3	45	60.4	1	4	90	0.00	29.901 
13:00	84.1	84.1	84.4	46	61.1	0	3	90	0.00	29.897 
13:05	84.3	84.3	84.7	46	61.2	1	3	90	0.00	29.897 
13:10	84.5	84.5	84.5	44	60.2	1	3	292	0.00	29.897 
13:15	84.1	84.1	84.3	45	60.4	1	4	315	0.00	29.898 
13:20	84.1	84.1	84.4	46	61.1	1	3	315	0.00	29.898 
13:25	84.5	84.5	84.7	45	60.8	1	4	315	0.00	29.898 
13:30	84.7	84.7	84.7	44	60.3	1	3	315	0.00	29.897 
13:35	84.7	84.7	85.0	45	61.0	1	3	315	0.00	29.897 
13:40	85.1	85.1	85.4	45	61.3	0	2	315	0.00	29.897 
13:45	86.1	86.1	86.7	45	62.2	0	2	315	0.00	29.896 
13:50	86.1	86.1	86.2	43	61.0	1	4	45	0.00	29.896 
13:55	85.5	85.5	85.9	45	61.7	1	3	292	0.00	29.896 
14:00	85.3	85.3	85.5	44	60.9	1	3	112	0.00	29.895 
14:05	85.5	85.5	85.9	45	61.7	1	4	112	0.00	29.895 
14:10	85.5	85.5	86.2	46	62.3	1	5	112	0.00	29.895 
14:15	85.5	85.5	86.2	46	62.3	2	5	112	0.00	29.892 
14:20	85.7	85.7	86.4	46	62.5	1	2	112	0.00	29.892 
14:25	85.5	85.5	86.4	47	62.9	2	4	112	0.00	29.892 
14:30	85.7	85.7	86.0	44	61.2	1	3	112	0.00	29.883 
14:35	86.3	86.3	86.5	43	61.1	0	2	22	0.00	29.883 
14:40	86.7	86.7	86.7	42	60.8	0	2	338	0.00	29.883 
14:45	86.7	86.7	86.5	41	60.1	1	3	338	0.00	29.883 
14:50	87.0	87.0	87.1	42	61.1	0	3	135	0.00	29.883 
14:55	87.0	87.0	86.4	39	59.0	2	4	90	0.00	29.883 
15:00	86.5	86.5	86.5	42	60.6	1	4	90	0.00	29.881 
15:05	87.0	87.0	86.4	39	59.0	1	4	90	0.00	29.881 
15:10	87.4	87.4	86.9	39	59.4	1	3	90	0.00	29.881 
15:15	87.6	87.6	86.9	38	58.8	1	3	90	0.00	29.878 
15:20	87.6	87.6	86.4	36	57.3	1	2	90	0.00	29.878 
15:25	87.6	87.6	86.7	37	58.1	1	4	90	0.00	29.878 
15:30	88.0	88.0	86.9	36	57.7	0	3	90	0.00	29.875 
15:35	88.2	88.2	86.9	35	57.0	0	1	90	0.00	29.875 
15:40	88.8	88.8	87.6	35	57.6	1	2	90	0.00	29.875 
15:45	89.3	89.3	88.3	35	58.0	0	2	90	0.00	29.870 
15:50	89.0	89.0	87.9	35	57.7	1	2	90	0.00	29.870 
15:55	88.8	88.8	87.9	36	58.4	2	6	90	0.00	29.870 
16:00	88.4	88.4	87.2	35	57.2	2	6	112	0.00	29.869 
16:05	88.2	88.2	87.2	36	57.8	1	4	270	0.00	29.869 
16:10	88.4	88.4	87.2	35	57.2	1	4	135	0.00	29.869 
16:15	88.6	88.6	87.6	36	58.2	0	2	90	0.00	29.867 
16:20	88.8	88.8	88.1	37	59.1	1	6	90	0.00	29.867 
16:25	88.4	88.4	87.4	36	58.0	1	3	112	0.00	29.867 
16:30	88.6	88.6	87.4	35	57.4	1	2	22	0.00	29.867 
16:35	88.8	88.8	88.1	37	59.1	0	3	22	0.00	29.867 
16:40	88.6	88.6	87.6	36	58.2	1	4	68	0.00	29.867 
16:45	88.6	88.6	87.6	36	58.2	1	3	112	0.00	29.866 
16:50	88.8	88.8	87.9	36	58.4	0	2	112	0.00	29.866 
16:55	88.8	88.8	87.6	35	57.6	1	4	112	0.00	29.866 
17:00	88.8	88.8	88.1	37	59.1	1	3	112	0.00	29.863 
17:05	88.8	88.8	87.6	35	57.6	1	3	112	0.00	29.863 
17:10	88.2	88.2	87.2	36	57.8	1	4	90	0.00	29.863 
17:15	87.6	87.6	87.1	39	59.5	2	3	90	0.00	29.866 
17:20	87.2	87.2	87.4	42	61.3	1	3	90	0.00	29.866 
17:25	87.2	87.2	87.1	41	60.6	1	3	90	0.00	29.866 
17:30	87.2	87.2	87.1	41	60.6	1	2	90	0.00	29.866 
17:35	86.7	86.7	86.7	42	60.8	1	4	90	0.00	29.866 
17:40	86.5	86.5	86.7	43	61.3	1	3	90	0.00	29.866 
17:45	86.3	86.3	87.2	46	63.0	1	4	90	0.00	29.865 
17:50	85.9	85.9	86.4	45	62.1	1	4	90	0.00	29.865 
17:55	85.5	85.5	86.2	46	62.3	1	3	112	0.00	29.865 
18:00	85.3	85.3	86.4	48	63.4	0	2	135	0.00	29.868 
18:05	84.9	84.9	86.3	50	64.2	1	3	68	0.00	29.868 
18:10	84.3	84.3	85.7	51	64.2	0	2	112	0.00	29.868 
18:15	84.1	84.1	85.7	52	64.5	0	3	112	0.00	29.866 
18:20	83.8	83.8	85.3	52	64.3	0	2	112	0.00	29.866 
18:25	83.6	83.6	85.0	52	64.1	0	2	68	0.00	29.866 
18:30	83.4	83.4	85.0	53	64.4	0	1	68	0.00	29.868 
18:35	83.2	83.2	84.9	54	64.8	0	2	68	0.00	29.868 
18:40	83.0	83.0	84.7	54	64.6	0	2	68	0.00	29.868 
18:45	83.0	83.0	84.7	54	64.6	0	1	68	0.00	29.866 
18:50	83.0	83.0	84.7	54	64.6	0	2	68	0.00	29.866 
18:55	82.8	82.8	84.6	55	65.0	0	1	68	0.00	29.866 
19:00	82.8	82.8	84.6	55	65.0	0	1	68	0.00	29.868 
19:05	82.6	82.6	84.5	56	65.3	0	1	68	0.00	29.868 
19:10	82.6	82.6	84.7	57	65.8	1	3	68	0.00	29.868 
19:15	82.4	82.4	84.4	57	65.6	0	2	68	0.00	29.869 
19:20	82.4	82.4	84.1	55	64.6	0	3	68	0.00	29.869 
19:25	82.6	82.6	84.1	54	64.2	0	2	68	0.00	29.869 
19:30	82.6	82.6	84.3	55	64.8	0	3	68	0.00	29.867 
19:35	82.8	82.8	84.6	55	65.0	0	2	68	0.00	29.867 
19:40	82.8	82.8	84.8	56	65.5	0	3	68	0.00	29.867 
19:45	82.8	82.8	85.0	57	66.0	0	2	68	0.00	29.868 
19:50	82.8	82.8	85.2	58	66.5	0	1	68	0.00	29.868 
19:55	82.8	82.8	85.2	58	66.5	0	1	68	0.00	29.868 
20:00	82.6	82.6	85.1	59	66.8	0	1	68	0.00	29.869 
20:05	82.4	82.4	85.0	60	67.1	0	1	68	0.00	29.869 
20:10	82.2	82.2	84.9	61	67.4	0	2	68	0.00	29.869 
20:15	81.8	81.8	84.3	61	67.0	0	1	68	0.00	29.866 
20:20	81.6	81.6	83.9	60	66.3	0	3	68	0.00	29.866 
20:25	81.4	81.4	83.8	61	66.6	0	1	68	0.00	29.866 
20:30	81.2	81.2	83.5	61	66.4	0	2	68	0.00	29.868 
20:35	81.1	81.1	83.3	61	66.4	0	1	68	0.00	29.868 
20:40	80.7	80.7	82.9	62	66.4	0	1	68	0.00	29.868 
20:45	80.3	80.3	82.4	62	66.1	0	1	68	0.00	29.873 
20:50	80.1	80.1	82.3	63	66.3	0	1	68	0.00	29.873 
20:55	79.9	79.9	82.0	63	66.2	0	1	68	0.00	29.873 
21:00	79.6	79.6	81.7	64	66.3	0	1	68	0.00	29.880 
21:05	79.4	79.4	81.6	65	66.6	0	1	68	0.00	29.880 
21:10	79.0	79.0	81.0	65	66.2	0	1	68	0.00	29.880 
21:15	78.8	78.8	80.8	65	66.0	0	1	68	0.00	29.878 
21:20	78.8	78.8	80.8	65	66.0	0	1	68	0.00	29.878 
21:25	78.5	78.5	80.4	65	65.7	0	0	---	0.00	29.878 
21:30	78.3	78.3	80.2	64	65.1	0	0	---	0.00	29.881 
21:35	78.1	78.1	79.9	64	64.9	0	0	---	0.00	29.881 
21:40	77.7	77.7	79.5	63	64.1	0	0	---	0.00	29.881 
21:45	77.4	77.4	79.1	60	62.4	0	0	---	0.00	29.887 
21:50	77.0	77.0	78.8	61	62.5	0	0	---	0.00	29.887 
21:55	76.8	76.8	78.6	63	63.2	0	0	---	0.00	29.887 
22:00	76.5	76.5	78.3	65	63.8	0	0	---	0.00	29.895 
22:05	76.1	76.1	78.0	64	63.0	0	0	---	0.00	29.895 
22:10	75.8	75.8	77.7	66	63.6	0	0	---	0.00	29.895 
22:15	75.4	75.4	77.1	69	64.5	0	0	---	0.00	29.893 
22:20	74.9	74.9	74.9	70	64.4	0	0	---	0.00	29.893 
22:25	74.6	74.6	74.6	72	65.0	0	0	---	0.00	29.893 
22:30	74.2	74.2	74.2	72	64.6	0	0	---	0.00	29.896 
22:35	73.9	73.9	73.9	72	64.3	0	0	---	0.00	29.896 
22:40	73.5	73.5	73.5	73	64.3	0	0	---	0.00	29.896 
22:45	73.3	73.3	73.3	74	64.5	0	0	---	0.00	29.899 
22:50	73.0	73.0	73.0	74	64.2	0	0	---	0.00	29.899 
22:55	72.8	72.8	72.8	74	64.0	0	0	---	0.00	29.899 
23:00	72.7	72.7	72.7	74	63.9	0	0	---	0.00	29.899 
23:05	72.5	72.5	72.5	74	63.7	0	0	---	0.00	29.899 
23:10	72.3	72.3	72.3	75	63.9	0	0	---	0.00	29.899 
23:15	72.0	72.0	72.0	75	63.6	0	0	---	0.00	29.896 
23:20	71.8	71.8	71.8	76	63.8	0	0	---	0.00	29.896 
23:25	71.6	71.6	71.6	77	64.0	0	0	---	0.00	29.896 
23:30	71.3	71.3	71.3	77	63.7	0	0	---	0.00	29.896 
23:35	71.1	71.1	71.1	78	63.9	0	0	---	0.00	29.896 
23:40	70.8	70.8	70.8	79	64.0	0	0	---	0.00	29.896 
23:45	70.6	70.6	70.6	80	64.1	0	0	---	0.00	29.900 
23:50	70.3	70.3	70.3	80	63.8	0	0	---	0.00	29.900 
23:55	70.1	70.1	70.1	81	64.0	0	0	---	0.00	29.900 

CoCoRaHS
IN-AL-39
A2 Web Hosting
Creative Commons License
GoDaddy
search engine by freefind advanced

loaded 2018-11-15 15:47:55 • last modified 2010-11-18 10:43:29
Privacy PolicyDisclaimer
• wx.awcolley.com is powered by PmWiki v.2002016 •
• all content (unless otherwise noted) © 2018 A W Colley